WetterOnline ( http://www.wetteronline.ch )

Wetter aktuell Emden

Aktuelles Wetter: Emden (5m)

6-stündlich | Neueste Meldungen
Ortszeit Temperatur Wetter
Mo, 25.03. 1:00 6.0° C leicht bewölkt
So, 24.03. 19:00 7.1° C wolkig
So, 24.03. 13:00 8.6° C fast wolkenlos
So, 24.03. 7:00 2.9° C bedeckt
So, 24.03. 1:00 4.4° C bedeckt
Sa, 23.03. 19:00 6.1° C wolkig
Sa, 23.03. 13:00 8.6° C bedeckt
Sa, 23.03. 7:00 6.0° C bewölkt
Ortszeit Temperatur Wetter
Mo, 25.03. 2:00 4.3° C leichter Regen
Mo, 25.03. 1:40 4.6° C leichter Regen
Mo, 25.03. 1:30 5.3° C starker Regen
Mo, 25.03. 1:20 5.3° C starker Regen
Mo, 25.03. 1:10 6.2° C leichter Regen
Mo, 25.03. 1:00 6.0° C leicht bewölkt
Mo, 25.03. 0:40 5.8° C bewölkt
Mo, 25.03. 0:30 5.8° C leichter Regen
Mo, 25.03. 0:00 6.5° C leichter Regen
So, 24.03. 23:30 6.1° C bedeckt
So, 24.03. 23:00 5.9° C bewölkt
Ortszeit Relative Feuchte Sichtweite
Mo, 25.03. 1:00 85% 35 km
So, 24.03. 19:00 67% 45 km
So, 24.03. 13:00 62% 40 km
So, 24.03. 7:00 96% 18 km
So, 24.03. 1:00 91% 20 km
Sa, 23.03. 19:00 80% 27 km
Sa, 23.03. 13:00 85% 30 km
Sa, 23.03. 7:00 95% 2.9 km
Ortszeit Relative Feuchte Sichtweite
Mo, 25.03. 2:00 87% 19 km
Mo, 25.03. 1:40 88% -
Mo, 25.03. 1:30 88% 6 km
Mo, 25.03. 1:20 88% -
Mo, 25.03. 1:10 85% -
Mo, 25.03. 1:00 85% 35 km
Mo, 25.03. 0:40 85% -
Mo, 25.03. 0:30 82% 35 km
Mo, 25.03. 0:00 73% 40 km
So, 24.03. 23:30 73% 40 km
So, 24.03. 23:00 75% 40 km
Ortszeit Niederschlagsmenge Niederschlagsart
Mo, 25.03. 1:00 0.8 l/m2 in 6 Std. Regen
So, 24.03. 19:00 0.0 l/m2 in 12 Std. -
So, 24.03. 13:00 0.0 l/m2 in 6 Std. -
So, 24.03. 7:00 0.0 l/m2 in 12 Std. -
So, 24.03. 1:00 0.0 l/m2 in 6 Std. -
Sa, 23.03. 19:00 0.1 l/m2 in 12 Std. Sprühregen
Sa, 23.03. 13:00 0.1 l/m2 in 6 Std. Sprühregen
Sa, 23.03. 7:00 0.0 l/m2 in 12 Std. -
Ortszeit Niederschlagsmenge Niederschlagsart
Mo, 25.03. 2:00 2.5 l/m2 in 1 Std. Schnee, Regen
Mo, 25.03. 1:40 keine Meldung -
Mo, 25.03. 1:30 0.3 l/m2 in 1 Std. -
Mo, 25.03. 1:20 keine Meldung -
Mo, 25.03. 1:10 keine Meldung -
Mo, 25.03. 1:00 0.8 l/m2 in 1 Std. Regen
Mo, 25.03. 0:40 keine Meldung -
Mo, 25.03. 0:30 0.4 l/m2 in 1 Std. -
Mo, 25.03. 0:00 0.1 l/m2 in 1 Std. Regen
So, 24.03. 23:30 0.0 l/m2 in 1 Std. -
So, 24.03. 23:00 0.0 l/m2 in 1 Std. -
Ortszeit Stärke Spitze Richtung
km/h Bft. km/h Grad Sektor
Mo, 25.03. 1:00 20 4 43 240° SW
So, 24.03. 19:00 14 3 32 260° W
So, 24.03. 13:00 14 3 25 250° W
So, 24.03. 7:00 0 0 7 - -
So, 24.03. 1:00 4 1 11 280° W
Sa, 23.03. 19:00 11 2 29 340° N
Sa, 23.03. 13:00 17 3 28 330° NW
Sa, 23.03. 7:00 6 1 22 240° SW
Ortszeit Stärke Spitze Richtung
km/h Bft. km/h Grad Sektor
Mo, 25.03. 2:00 30 5 54 310° NW
Mo, 25.03. 1:40 28 4 - 310° NW
Mo, 25.03. 1:30 25 4 54 250° W
Mo, 25.03. 1:20 25 4 - 250° W
Mo, 25.03. 1:10 18 3 - 240° SW
Mo, 25.03. 1:00 20 4 43 240° SW
Mo, 25.03. 0:40 20 4 - 240° SW
Mo, 25.03. 0:30 20 4 43 240° SW
Mo, 25.03. 0:00 18 3 32 240° SW
So, 24.03. 23:30 18 3 29 230° SW
So, 24.03. 23:00 18 3 29 230° SW
Ortszeit Untergrenze Bedeckung Gattung
total tief tief mittel hoch
Mo, 25.03. 1:00 630 m 4/8 4/8 - - -
So, 24.03. 19:00 1500 m 6/8 6/8 - - -
So, 24.03. 13:00 870 m 1/8 1/8 - - -
So, 24.03. 7:00 3600 m 8/8 8/8 - - -
So, 24.03. 1:00 3900 m 8/8 8/8 - - -
Sa, 23.03. 19:00 600 m 8/8 2/8 - - -
Sa, 23.03. 13:00 300 m 8/8 8/8 - - -
Sa, 23.03. 7:00 1110 m 7/8 7/8 - - -
Ortszeit Bedeckungsgrad in Achtel und Wolkenuntergrenze
Mo, 25.03. 2:00 keine Wolken
Mo, 25.03. 1:40 1(450m)
Mo, 25.03. 1:30 2(510m)
Mo, 25.03. 1:20 2(510m)
Mo, 25.03. 1:10 2(570m)
Mo, 25.03. 1:00 2(630m) 4(810m)
Mo, 25.03. 0:40 2(660m) 7(990m) 7(1500m)
Mo, 25.03. 0:30 4(780m) 7(990m) 7(1800m)
Mo, 25.03. 0:00 5(1260m) 6(1500m) 7(1800m)
So, 24.03. 23:30 7(1410m) 8(1500m)
So, 24.03. 23:00 1(1410m) 7(2400m) 8(3000m)
Ortszeit Luftdruck NN (hPa) Tendenz (hPa in 3 Std.)
Mo, 25.03. 1:00 1017 - 4,4
So, 24.03. 19:00 1023 - 1,9
So, 24.03. 13:00 1027 - 1,5
So, 24.03. 7:00 1029 - 1,2
So, 24.03. 1:00 1032 - 0,5
Sa, 23.03. 19:00 1032 + 0,6
Sa, 23.03. 13:00 1030 + 1,9
Sa, 23.03. 7:00 1027 + 1,0
Ortszeit Luftdruck NN (hPa) Tendenz (hPa in 3 Std.)
Mo, 25.03. 2:00 1017 - 3,1
Mo, 25.03. 1:40 1017 keine Meldung
Mo, 25.03. 1:30 1017 - 3,8
Mo, 25.03. 1:20 1017 keine Meldung
Mo, 25.03. 1:10 1016 keine Meldung
Mo, 25.03. 1:00 1017 - 4,4
Mo, 25.03. 0:40 1017 keine Meldung
Mo, 25.03. 0:30 1018 - 4,4
Mo, 25.03. 0:00 1018 - 4,0
So, 24.03. 23:30 1019 - 3,5
So, 24.03. 23:00 1020 - 3,1
Ortszeit Schneehöhe (cm)
Mo, 25.03. 1:00 0
So, 24.03. 19:00 0
So, 24.03. 13:00 0
So, 24.03. 7:00 0
So, 24.03. 1:00 0
Sa, 23.03. 19:00 0
Sa, 23.03. 13:00 0
Sa, 23.03. 7:00 0
Ortszeit Schneehöhe (cm)
Mo, 25.03. 2:00 0
Mo, 25.03. 1:40 0
Mo, 25.03. 1:30 0
Mo, 25.03. 1:20 0
Mo, 25.03. 1:10 0
Mo, 25.03. 1:00 0
Mo, 25.03. 0:40 0
Mo, 25.03. 0:30 0
Mo, 25.03. 0:00 0
So, 24.03. 23:30 0
So, 24.03. 23:00 0
Link zu dieser Seite / Seite empfehlen

Das Wetter in ...